Time;durP1;ratioP1;P1;durP2;ratioP2;P2;SDS_P1;SDS_P2;PMS_P1;PMS_P2;Temp;Humidity;BMP_temperature;BMP_pressure;BME280_temperature;BME280_humidity;BME280_pressure;Samples;Min_cycle;Max_cycle;Signal;HPM_P1;HPM_P2
2021/05/13 00:01:23;;;;;;;4.00;2.70;;;;;;;13.46;64.66;99677.06;5052636;28;20086;-77
2021/05/13 00:03:53;;;;;;;5.07;2.70;;;;;;;13.60;64.15;99670.34;5051963;28;20051;-73
2021/05/13 00:06:20;;;;;;;4.60;3.08;;;;;;;13.55;63.86;99680.63;5071517;28;20041;-77
2021/05/13 00:08:47;;;;;;;5.65;2.67;;;;;;;13.56;64.19;99668.56;5056440;28;20466;-75
2021/05/13 00:11:13;;;;;;;4.18;2.70;;;;;;;13.57;63.98;99678.06;5059904;28;20151;-75
2021/05/13 00:13:39;;;;;;;6.85;2.92;;;;;;;13.62;63.90;99678.13;5070439;28;20500;-75
2021/05/13 00:18:40;;;;;;;6.18;2.95;;;;;;;13.69;63.76;99672.16;5070893;23;20050;-74
2021/05/13 00:21:06;;;;;;;7.97;2.95;;;;;;;13.62;63.94;99663.44;5018743;28;20041;-75
2021/05/13 00:23:31;;;;;;;4.88;2.60;;;;;;;13.70;63.54;99661.78;5027775;28;20029;-74
2021/05/13 00:25:57;;;;;;;6.28;2.65;;;;;;;13.74;63.79;99668.78;5014431;28;20025;-75
2021/05/13 00:28:23;;;;;;;6.97;2.78;;;;;;;13.71;63.81;99678.25;5032616;28;20025;-75
2021/05/13 00:30:49;;;;;;;5.18;2.53;;;;;;;13.72;64.05;99680.84;5029557;28;20030;-75
2021/05/13 00:33:15;;;;;;;9.43;2.90;;;;;;;13.76;63.71;99671.38;5027558;28;20103;-75
2021/05/13 00:35:41;;;;;;;12.68;3.22;;;;;;;13.92;63.54;99675.00;5033036;28;20036;-75
2021/05/13 00:38:07;;;;;;;8.38;3.13;;;;;;;13.63;63.73;99602.06;5032799;28;20033;-75
2021/05/13 00:40:33;;;;;;;7.32;3.00;;;;;;;14.08;64.20;99666.53;5032671;28;20446;-75
2021/05/13 00:42:59;;;;;;;8.18;2.83;;;;;;;13.99;64.68;99678.53;5032459;28;20025;-75
2021/05/13 00:45:58;;;;;;;13.00;3.45;;;;;;;13.97;64.49;99673.34;5032709;28;20083;-74
2021/05/13 00:48:24;;;;;;;12.25;3.50;;;;;;;14.17;62.56;99681.31;5032798;28;20092;-75
2021/05/13 00:50:50;;;;;;;8.40;2.97;;;;;;;14.06;62.56;99662.19;5032930;28;20091;-74
2021/05/13 00:53:17;;;;;;;7.50;2.80;;;;;;;14.02;62.55;99663.00;5031672;28;20455;-73
2021/05/13 00:55:42;;;;;;;7.13;3.08;;;;;;;14.22;61.97;99666.66;5014421;28;20499;-75
2021/05/13 00:58:07;;;;;;;7.65;2.80;;;;;;;14.29;62.25;99677.09;5032548;28;20033;-76
2021/05/13 01:03:06;;;;;;;7.28;2.60;;;;;;;14.10;62.46;99682.09;5032526;28;20044;-75
2021/05/13 01:05:33;;;;;;;10.10;2.92;;;;;;;14.10;62.88;99691.63;5032259;28;20037;-75
2021/05/13 01:08:00;;;;;;;14.55;3.53;;;;;;;14.03;62.60;99670.81;5031697;28;20119;-75
2021/05/13 01:10:26;;;;;;;12.15;3.00;;;;;;;13.71;62.87;99637.59;5014613;28;20027;-75
2021/05/13 01:12:53;;;;;;;10.10;2.92;;;;;;;14.01;62.85;99682.88;5032185;28;20017;-75
2021/05/13 01:18:04;;;;;;;9.43;3.00;;;;;;;13.71;63.70;99683.44;5031036;28;20479;-73
2021/05/13 01:20:31;;;;;;;4.38;2.40;;;;;;;13.46;64.24;99688.31;5031740;28;20120;-76
2021/05/13 01:22:58;;;;;;;8.57;2.88;;;;;;;13.30;65.40;99684.63;5032295;28;20104;-75
2021/05/13 01:25:24;;;;;;;5.50;2.67;;;;;;;12.84;66.21;99678.81;5031805;28;20507;-77
2021/05/13 01:27:59;;;;;;;6.05;2.60;;;;;;;13.14;65.46;99695.63;5031753;28;20033;-79
2021/05/13 01:30:26;;;;;;;4.35;2.50;;;;;;;13.32;65.21;99672.56;5031807;28;20029;-76
2021/05/13 01:32:51;;;;;;;5.30;2.80;;;;;;;13.52;64.58;99691.00;5013752;28;20053;-75
2021/05/13 01:35:18;;;;;;;4.20;2.53;;;;;;;13.71;63.74;99681.69;5031668;28;20052;-75
2021/05/13 01:37:43;;;;;;;6.35;3.33;;;;;;;13.80;63.11;99654.13;5031826;28;20472;-76
2021/05/13 01:40:10;;;;;;;4.85;2.50;;;;;;;13.86;62.94;99674.94;5031706;28;20100;-73
2021/05/13 01:42:35;;;;;;;5.53;2.78;;;;;;;13.64;63.48;99674.69;5031807;28;20033;-78
2021/05/13 01:45:00;;;;;;;4.43;2.50;;;;;;;13.60;63.33;99685.91;5030155;28;20025;-76
2021/05/13 01:47:26;;;;;;;6.18;2.40;;;;;;;13.59;62.46;99663.41;5013028;28;20108;-77
2021/05/13 01:49:51;;;;;;;6.50;2.25;;;;;;;13.68;62.20;99684.28;5031555;28;20038;-76
2021/05/13 01:52:17;;;;;;;7.10;2.47;;;;;;;13.55;62.35;99677.19;5031225;28;20021;-74
2021/05/13 01:54:42;;;;;;;3.45;2.53;;;;;;;13.45;63.04;99680.53;5013771;28;20030;-75
2021/05/13 01:57:09;;;;;;;5.28;2.80;;;;;;;13.32;63.15;99679.44;5031111;28;20059;-75
2021/05/13 01:59:35;;;;;;;8.80;2.53;;;;;;;13.45;63.10;99654.59;5031700;28;20036;-72
2021/05/13 02:02:01;;;;;;;5.60;2.60;;;;;;;13.48;63.75;99675.38;5030968;28;20034;-72
2021/05/13 02:04:28;;;;;;;8.63;2.78;;;;;;;13.27;63.82;99656.06;5013335;28;20053;-74
2021/05/13 02:06:54;;;;;;;3.83;2.55;;;;;;;13.47;63.10;99664.13;5031339;28;20034;-72
2021/05/13 02:09:19;;;;;;;4.97;2.40;;;;;;;13.49;63.47;99664.16;5030228;28;20021;-74
2021/05/13 02:11:45;;;;;;;4.82;2.78;;;;;;;13.28;63.66;99637.06;5031151;28;20377;-75
2021/05/13 02:14:10;;;;;;;6.10;2.67;;;;;;;13.45;64.31;99667.56;5031165;28;20017;-74
2021/05/13 02:16:36;;;;;;;6.95;2.53;;;;;;;13.33;64.37;99660.47;5030561;28;20507;-79
2021/05/13 02:19:02;;;;;;;5.75;2.72;;;;;;;13.34;64.47;99654.44;5031084;28;20057;-75
2021/05/13 02:21:27;;;;;;;4.95;3.08;;;;;;;13.22;64.96;99655.13;5030649;28;20075;-71
2021/05/13 02:23:52;;;;;;;6.50;2.47;;;;;;;13.22;64.49;99635.28;5031224;28;20029;-75
2021/05/13 02:26:20;;;;;;;6.75;2.90;;;;;;;13.52;64.54;99674.53;5012867;28;20495;-74
2021/05/13 02:28:47;;;;;;;8.00;3.05;;;;;;;13.48;64.96;99655.47;5012513;28;20028;-73
2021/05/13 02:31:13;;;;;;;8.10;3.05;;;;;;;13.42;65.55;99653.69;5030231;28;20474;-75
2021/05/13 02:33:39;;;;;;;14.80;3.70;;;;;;;13.45;65.13;99659.78;5013363;28;20025;-74
2021/05/13 02:36:04;;;;;;;5.57;2.55;;;;;;;13.35;65.19;99653.59;5030598;28;20052;-72
2021/05/13 02:38:30;;;;;;;8.10;2.88;;;;;;;13.55;64.35;99661.63;5013256;28;20029;-74
2021/05/13 02:40:55;;;;;;;8.43;3.03;;;;;;;13.42;64.50;99626.88;5030496;28;20025;-72
2021/05/13 02:43:21;;;;;;;5.00;2.70;;;;;;;13.52;64.57;99658.97;5030611;28;20104;-76
2021/05/13 02:45:47;;;;;;;7.85;3.30;;;;;;;13.50;64.87;99681.44;5030328;28;20084;-72
2021/05/13 02:48:12;;;;;;;5.53;2.88;;;;;;;13.44;64.36;99674.47;5013049;28;20037;-74
2021/05/13 02:50:38;;;;;;;9.93;2.78;;;;;;;13.47;64.03;99692.66;5030450;28;20017;-76
2021/05/13 02:53:03;;;;;;;6.18;3.17;;;;;;;13.31;65.05;99688.97;5029405;28;20037;-72
2021/05/13 02:55:29;;;;;;;6.20;2.78;;;;;;;13.16;65.11;99681.84;5027722;28;20555;-70
2021/05/13 02:57:55;;;;;;;21.58;3.55;;;;;;;12.92;65.75;99695.31;5029955;28;20025;-73
2021/05/13 03:00:33;;;;;;;10.57;2.90;;;;;;;12.67;65.66;99663.84;5029490;28;20052;-74
2021/05/13 03:02:59;;;;;;;7.53;3.13;;;;;;;13.05;65.14;99706.75;5028362;28;20029;-73
2021/05/13 03:05:28;;;;;;;7.75;2.90;;;;;;;13.18;64.70;99695.69;5011968;28;20483;-74
2021/05/13 03:08:01;;;;;;;8.18;3.33;;;;;;;13.33;64.87;99686.38;5029963;28;20033;-74
2021/05/13 03:10:43;;;;;;;12.07;3.40;;;;;;;13.39;64.20;99694.28;5029699;28;20022;-73
2021/05/13 03:13:11;;;;;;;8.38;3.05;;;;;;;13.36;64.34;99702.84;5029317;28;20091;-75
2021/05/13 03:15:36;;;;;;;9.10;3.38;;;;;;;13.33;64.69;99686.38;5029552;28;20036;-74
2021/05/13 03:18:03;;;;;;;8.30;2.80;;;;;;;13.20;65.05;99693.13;5030067;28;20041;-74
2021/05/13 03:20:40;;;;;;;5.53;2.63;;;;;;;12.91;64.97;99642.63;5030466;28;20091;-72
2021/05/13 03:23:08;;;;;;;10.98;3.75;;;;;;;13.29;64.86;99685.47;5030232;28;20407;-73
2021/05/13 03:25:36;;;;;;;15.90;3.17;;;;;;;13.33;64.66;99683.78;5029281;28;20026;-70
2021/05/13 03:28:09;;;;;;;5.63;3.08;;;;;;;13.42;64.37;99681.34;5030183;28;20455;-71
2021/05/13 03:30:40;;;;;;;6.40;3.20;;;;;;;13.53;64.28;99682.38;5029872;28;20028;-71
2021/05/13 03:33:07;;;;;;;8.85;3.38;;;;;;;13.66;63.91;99703.25;5029835;28;20502;-71
2021/05/13 03:35:33;;;;;;;9.45;3.42;;;;;;;13.69;64.02;99695.50;5029833;28;20055;-75
2021/05/13 03:37:59;;;;;;;14.30;3.78;;;;;;;13.68;64.07;99697.25;5030028;28;20125;-76
2021/05/13 03:40:24;;;;;;;11.32;3.35;;;;;;;13.62;63.71;99679.00;5030374;28;20109;-77
2021/05/13 03:42:50;;;;;;;6.55;3.10;;;;;;;13.45;64.23;99678.78;5033461;28;20472;-75
2021/05/13 03:45:15;;;;;;;7.10;3.28;;;;;;;13.40;64.24;99688.25;5033411;28;20056;-75
2021/05/13 03:47:41;;;;;;;7.30;2.80;;;;;;;13.40;64.16;99691.69;5033523;28;20029;-74
2021/05/13 03:50:08;;;;;;;9.85;3.13;;;;;;;13.41;64.81;99693.44;5033373;28;20033;-75
2021/05/13 03:52:34;;;;;;;6.78;3.65;;;;;;;13.14;65.00;99649.00;5033256;28;20034;-73
2021/05/13 03:54:59;;;;;;;5.28;2.65;;;;;;;13.14;65.10;99680.94;5015714;28;20032;-72
2021/05/13 03:57:24;;;;;;;8.77;3.42;;;;;;;13.13;65.52;99701.66;5015171;28;20029;-72
2021/05/13 03:59:53;;;;;;;7.35;3.20;;;;;;;12.78;66.71;99690.81;5033500;28;20033;-77
2021/05/13 04:02:32;;;;;;;5.57;3.00;;;;;;;12.74;66.47;99680.38;5015288;28;20111;-77
2021/05/13 04:04:58;;;;;;;7.68;3.20;;;;;;;13.00;66.04;99711.84;5033276;28;20104;-72
2021/05/13 04:07:31;;;;;;;7.70;3.28;;;;;;;13.11;66.24;99702.50;5033013;28;20116;-71
2021/05/13 04:09:57;;;;;;;5.07;2.83;;;;;;;13.05;66.27;99697.25;5015618;28;20025;-72
2021/05/13 04:12:24;;;;;;;5.53;2.97;;;;;;;12.94;66.58;99668.56;5015411;28;20486;-74
2021/05/13 04:14:50;;;;;;;5.55;3.20;;;;;;;13.20;66.10;99690.53;5032904;28;20072;-75
2021/05/13 04:17:16;;;;;;;12.13;3.33;;;;;;;13.26;66.49;99711.38;5033167;28;20085;-78
2021/05/13 04:19:42;;;;;;;9.48;3.50;;;;;;;13.01;66.50;99679.91;5032423;28;20121;-73
2021/05/13 04:22:07;;;;;;;11.00;3.42;;;;;;;13.18;67.25;99718.16;5032071;28;20033;-72
2021/05/13 04:24:33;;;;;;;9.98;3.70;;;;;;;12.76;68.74;99715.81;5032547;28;20076;-76
2021/05/13 04:26:59;;;;;;;5.57;3.53;;;;;;;12.93;68.83;99717.78;5033194;28;20465;-78
2021/05/13 04:29:24;;;;;;;7.75;4.03;;;;;;;12.83;68.31;99677.06;5032241;28;20068;-75
2021/05/13 04:31:50;;;;;;;10.98;5.03;;;;;;;13.21;68.19;99721.66;5031926;28;20496;-76
2021/05/13 04:34:15;;;;;;;8.25;5.30;;;;;;;12.72;69.33;99705.38;5031607;28;20026;-74
2021/05/13 04:36:41;;;;;;;16.98;5.43;;;;;;;12.81;69.75;99722.78;4989577;28;20053;-71
2021/05/13 04:39:06;;;;;;;10.35;4.20;;;;;;;12.81;69.72;99717.59;4974444;28;20057;-75
2021/05/13 04:41:33;;;;;;;8.68;4.00;;;;;;;13.10;68.60;99725.81;4970969;28;20035;-73
2021/05/13 04:44:03;;;;;;;10.15;3.95;;;;;;;13.27;67.57;99729.53;4970834;28;20046;-72
2021/05/13 04:46:32;;;;;;;10.25;4.07;;;;;;;13.26;68.00;99717.41;4971206;28;20075;-75
2021/05/13 04:51:34;;;;;;;5.78;3.42;;;;;;;13.52;67.78;99718.63;4971148;28;20420;-71
2021/05/13 04:54:01;;;;;;;8.02;3.95;;;;;;;13.50;67.68;99699.59;4969276;28;20548;-74
2021/05/13 04:56:27;;;;;;;7.00;3.33;;;;;;;13.67;67.83;99716.25;4970599;28;20087;-75
2021/05/13 04:58:52;;;;;;;9.73;3.45;;;;;;;13.73;67.18;99723.22;4970767;28;20043;-71
2021/05/13 05:01:19;;;;;;;4.75;3.40;;;;;;;13.70;67.38;99708.47;4970500;28;20043;-74
2021/05/13 05:03:44;;;;;;;8.43;3.35;;;;;;;13.78;67.63;99702.53;4970247;28;20033;-75
2021/05/13 05:06:10;;;;;;;7.40;3.17;;;;;;;13.85;66.70;99712.97;4970439;28;20026;-71
2021/05/13 05:08:37;;;;;;;7.80;3.45;;;;;;;13.86;65.99;99703.50;4988085;28;20393;-72
2021/05/13 05:11:02;;;;;;;15.32;3.60;;;;;;;13.99;66.46;99718.31;4989023;28;20573;-74
2021/05/13 05:13:29;;;;;;;8.80;3.45;;;;;;;14.09;65.59;99719.28;5025982;28;20073;-73
2021/05/13 05:15:55;;;;;;;10.23;3.15;;;;;;;14.04;65.20;99706.28;5031076;28;20029;-74
2021/05/13 05:18:22;;;;;;;10.25;3.95;;;;;;;14.23;66.16;99711.63;5013560;28;20037;-71
2021/05/13 05:20:48;;;;;;;8.93;2.85;;;;;;;14.33;63.64;99716.09;5028895;28;20043;-74
2021/05/13 05:23:15;;;;;;;8.95;3.30;;;;;;;14.52;64.30;99717.13;5028315;28;20132;-74
2021/05/13 05:25:41;;;;;;;5.35;3.20;;;;;;;14.66;63.45;99721.59;5034524;28;20036;-72
2021/05/13 05:28:08;;;;;;;10.18;3.05;;;;;;;14.59;63.20;99718.03;5031171;28;20017;-74
2021/05/13 05:30:34;;;;;;;6.93;2.78;;;;;;;14.55;62.73;99696.38;5023948;28;20510;-72
2021/05/13 05:33:01;;;;;;;8.30;3.05;;;;;;;14.81;61.69;99723.44;5023065;28;20423;-73
2021/05/13 05:35:27;;;;;;;6.10;3.17;;;;;;;14.75;62.68;99708.66;5031190;28;20054;-71
2021/05/13 05:37:54;;;;;;;8.65;3.00;;;;;;;14.88;61.95;99731.28;5031695;28;20026;-72
2021/05/13 05:40:23;;;;;;;5.90;2.75;;;;;;;14.50;61.50;99647.84;5031375;28;20448;-70
2021/05/13 05:42:49;;;;;;;6.20;2.80;;;;;;;15.05;60.76;99733.13;5031471;28;20028;-70
2021/05/13 05:45:16;;;;;;;6.00;2.90;;;;;;;15.11;59.61;99720.16;5031459;28;20060;-76
2021/05/13 05:47:42;;;;;;;9.70;2.92;;;;;;;15.20;58.10;99716.75;5031846;28;20112;-71
2021/05/13 05:50:09;;;;;;;7.80;2.78;;;;;;;15.16;58.76;99715.00;5031634;28;20061;-74
2021/05/13 05:52:35;;;;;;;5.70;2.70;;;;;;;15.13;58.50;99713.25;5031613;28;20099;-72
2021/05/13 05:55:01;;;;;;;7.60;3.03;;;;;;;15.23;56.26;99708.09;5031634;28;20029;-72
2021/05/13 05:57:26;;;;;;;5.18;2.90;;;;;;;15.19;56.51;99726.31;5031136;28;20029;-72
2021/05/13 05:59:52;;;;;;;7.38;2.80;;;;;;;15.17;56.26;99729.75;4980184;28;20056;-72
2021/05/13 06:02:17;;;;;;;4.80;2.97;;;;;;;14.80;56.93;99711.31;5031288;28;20079;-71
2021/05/13 06:04:43;;;;;;;6.60;2.75;;;;;;;14.87;57.34;99713.09;5031017;28;20055;-72
2021/05/13 06:07:08;;;;;;;9.63;3.08;;;;;;;15.27;56.23;99751.50;5031040;28;20026;-71
2021/05/13 06:09:34;;;;;;;6.95;3.47;;;;;;;15.18;57.45;99753.16;5030833;28;20416;-71
2021/05/13 06:11:59;;;;;;;6.50;3.00;;;;;;;15.26;56.97;99753.19;5030993;28;20083;-71
2021/05/13 06:14:25;;;;;;;7.75;3.63;;;;;;;15.00;54.59;99751.31;4988652;28;20046;-72
2021/05/13 06:16:50;;;;;;;5.57;3.35;;;;;;;15.02;55.04;99757.38;4989185;28;20078;-70
2021/05/13 06:19:18;;;;;;;8.10;3.70;;;;;;;15.21;54.64;99765.31;4989312;28;20061;-70
2021/05/13 06:21:44;;;;;;;5.20;3.17;;;;;;;15.23;54.70;99757.50;4989349;28;20135;-71
2021/05/13 06:24:11;;;;;;;10.13;3.70;;;;;;;15.35;54.50;99742.88;4989512;28;20069;-72
2021/05/13 06:26:37;;;;;;;9.48;3.45;;;;;;;15.48;54.29;99741.19;4989084;28;20556;-72
2021/05/13 06:29:04;;;;;;;10.10;3.67;;;;;;;15.65;53.87;99746.50;4989352;28;20104;-72
2021/05/13 06:31:30;;;;;;;8.00;3.35;;;;;;;15.74;53.31;99739.56;4989514;28;20121;-71
2021/05/13 06:33:55;;;;;;;8.93;3.50;;;;;;;15.92;53.59;99733.59;4989390;28;20540;-75
2021/05/13 06:36:21;;;;;;;7.53;3.97;;;;;;;15.95;53.34;99725.78;4986670;28;20041;-71
2021/05/13 06:38:47;;;;;;;5.65;3.65;;;;;;;16.06;52.99;99723.22;4989277;28;20034;-75
2021/05/13 06:41:13;;;;;;;13.18;3.92;;;;;;;16.10;52.93;99722.34;4988931;28;20038;-73
2021/05/13 06:43:39;;;;;;;7.13;3.50;;;;;;;16.30;52.41;99730.25;4988985;28;20066;-76
2021/05/13 06:46:05;;;;;;;9.95;3.92;;;;;;;16.41;51.99;99725.03;5021812;28;20146;-76
2021/05/13 06:48:34;;;;;;;6.63;3.90;;;;;;;16.41;53.18;99712.88;5013075;28;20036;-71
2021/05/13 06:51:00;;;;;;;9.95;4.05;;;;;;;16.27;53.38;99733.69;5031167;28;20450;-72
2021/05/13 06:53:25;;;;;;;5.38;3.33;;;;;;;16.17;53.33;99725.00;5030902;28;20033;-75
2021/05/13 06:55:52;;;;;;;15.23;3.97;;;;;;;16.06;54.64;99720.63;5030614;28;20025;-73
2021/05/13 06:58:21;;;;;;;6.32;3.15;;;;;;;16.27;54.01;99730.22;5030965;28;20030;-70
2021/05/13 07:00:47;;;;;;;12.80;3.70;;;;;;;16.54;52.82;99734.59;5030756;28;20025;-73
2021/05/13 07:03:14;;;;;;;5.28;3.30;;;;;;;16.44;52.69;99725.03;5030995;28;20037;-70
2021/05/13 07:05:40;;;;;;;5.97;3.28;;;;;;;16.52;52.48;99720.69;5012599;28;20021;-74
2021/05/13 07:08:06;;;;;;;5.65;3.00;;;;;;;16.59;52.08;99725.03;5030870;28;20026;-76
2021/05/13 07:10:32;;;;;;;12.80;3.97;;;;;;;16.79;51.89;99727.63;5030020;28;20032;-70
2021/05/13 07:12:58;;;;;;;11.15;3.50;;;;;;;16.72;51.19;99686.81;5030890;28;20080;-71
2021/05/13 07:15:24;;;;;;;9.40;3.28;;;;;;;16.91;50.93;99699.81;5030890;28;20054;-73
2021/05/13 07:17:49;;;;;;;7.47;3.17;;;;;;;17.11;50.50;99690.25;5034494;28;20050;-77
2021/05/13 07:20:15;;;;;;;7.82;3.38;;;;;;;17.22;50.65;99697.19;5016722;28;20033;-74
2021/05/13 07:22:40;;;;;;;6.93;3.00;;;;;;;17.13;50.84;99695.47;5034191;28;20025;-70
2021/05/13 07:25:06;;;;;;;9.75;3.40;;;;;;;17.26;50.31;99701.53;5033965;28;20026;-73
2021/05/13 07:27:32;;;;;;;9.75;3.28;;;;;;;17.29;50.78;99693.69;5034352;28;20037;-71
2021/05/13 07:29:58;;;;;;;8.35;3.45;;;;;;;17.39;49.42;99700.59;5034375;28;20030;-70
2021/05/13 07:32:23;;;;;;;14.02;4.13;;;;;;;17.53;49.54;99711.00;5034212;28;20381;-70
2021/05/13 07:34:49;;;;;;;10.73;3.30;;;;;;;17.28;49.26;99653.72;5034067;28;20026;-72
2021/05/13 07:37:14;;;;;;;13.25;3.20;;;;;;;17.54;49.16;99699.69;5033983;28;20026;-74
2021/05/13 07:39:40;;;;;;;10.88;3.60;;;;;;;17.62;48.74;99686.63;5033877;28;20484;-73
2021/05/13 07:42:05;;;;;;;11.80;3.08;;;;;;;17.77;48.64;99698.75;5033120;28;20033;-72
2021/05/13 07:44:31;;;;;;;9.85;3.67;;;;;;;17.37;49.48;99665.84;5034004;28;20555;-73
2021/05/13 07:46:58;;;;;;;9.07;3.70;;;;;;;17.71;51.74;99699.63;5015958;28;20025;-72
2021/05/13 07:49:25;;;;;;;10.55;3.35;;;;;;;17.72;49.78;99705.69;5015919;28;20029;-74
2021/05/13 07:51:50;;;;;;;9.98;3.25;;;;;;;17.60;48.63;99673.56;5033492;28;20026;-74
2021/05/13 07:54:16;;;;;;;7.43;2.70;;;;;;;17.97;48.22;99703.88;5010612;28;20471;-71
2021/05/13 07:56:41;;;;;;;8.77;3.25;;;;;;;17.87;48.60;99700.41;5011804;28;20417;-74
2021/05/13 07:59:07;;;;;;;9.82;3.22;;;;;;;17.97;48.71;99706.50;5011503;28;20129;-71
2021/05/13 08:01:32;;;;;;;9.25;2.90;;;;;;;17.98;48.88;99699.50;5011327;28;20030;-73
2021/05/13 08:03:58;;;;;;;14.93;3.33;;;;;;;18.04;48.32;99658.53;4994836;28;20136;-70
2021/05/13 08:06:23;;;;;;;11.60;2.95;;;;;;;18.57;47.25;99705.22;5011369;28;20029;-73
2021/05/13 08:08:49;;;;;;;11.27;3.08;;;;;;;18.46;48.26;99704.44;5010791;28;20233;-70
2021/05/13 08:11:14;;;;;;;12.98;3.17;;;;;;;18.52;47.57;99707.00;5011235;28;20026;-70
2021/05/13 08:13:39;;;;;;;10.30;2.88;;;;;;;18.48;46.60;99666.94;5011084;28;20510;-72
2021/05/13 08:16:05;;;;;;;9.38;2.72;;;;;;;18.49;46.57;99676.53;5010904;28;20052;-70
2021/05/13 08:18:30;;;;;;;14.40;2.90;;;;;;;18.75;45.86;99691.09;5010942;28;20065;-73
2021/05/13 08:20:56;;;;;;;11.10;3.05;;;;;;;18.71;45.43;99686.78;5011026;28;20462;-71
2021/05/13 08:23:21;;;;;;;13.38;2.78;;;;;;;18.84;43.81;99679.69;5010683;28;20061;-73
2021/05/13 08:25:47;;;;;;;15.25;2.92;;;;;;;19.08;42.43;99687.31;5026848;28;20041;-72
2021/05/13 08:28:12;;;;;;;11.13;3.00;;;;;;;19.12;43.54;99689.91;5032677;28;20030;-78
2021/05/13 08:30:38;;;;;;;7.47;2.65;;;;;;;19.21;41.92;99669.72;5015301;28;20042;-71
2021/05/13 08:33:04;;;;;;;5.95;2.90;;;;;;;19.38;42.75;99693.09;5015403;28;20032;-74
2021/05/13 08:35:29;;;;;;;10.07;2.70;;;;;;;19.56;43.53;99697.25;5033634;28;20037;-73
2021/05/13 08:37:54;;;;;;;9.13;3.33;;;;;;;19.63;43.52;99676.22;5032745;28;20457;-73
2021/05/13 08:40:20;;;;;;;7.65;3.33;;;;;;;19.45;43.05;99636.31;5015168;28;20476;-74
2021/05/13 08:42:46;;;;;;;10.23;2.50;;;;;;;19.79;44.07;99669.91;5032729;28;20452;-74
2021/05/13 08:45:12;;;;;;;5.97;2.70;;;;;;;19.47;43.45;99641.53;5032624;28;20438;-74
2021/05/13 08:47:41;;;;;;;8.50;2.38;;;;;;;19.84;43.19;99681.19;5029900;28;20164;-75
2021/05/13 08:50:07;;;;;;;10.75;2.75;;;;;;;19.58;43.05;99597.75;5026279;28;20057;-74
2021/05/13 08:52:33;;;;;;;10.38;2.50;;;;;;;20.06;45.90;99656.44;5021992;28;20091;-73
2021/05/13 08:55:03;;;;;;;8.95;2.65;;;;;;;20.10;43.38;99687.84;5026588;28;20033;-73
2021/05/13 08:57:29;;;;;;;9.55;2.97;;;;;;;20.28;43.25;99684.06;5020636;28;20024;-73
2021/05/13 08:59:56;;;;;;;8.77;2.83;;;;;;;20.39;43.69;99675.13;5021014;28;20025;-74
2021/05/13 09:02:23;;;;;;;7.22;2.83;;;;;;;20.43;42.83;99668.97;5030677;28;20028;-74
2021/05/13 09:04:52;;;;;;;8.68;2.88;;;;;;;20.52;43.14;99669.69;5024141;28;20540;-77
2021/05/13 09:07:23;;;;;;;12.25;2.67;;;;;;;20.58;43.52;99654.75;5025603;28;20611;-71
2021/05/13 09:10:01;;;;;;;9.80;2.72;;;;;;;20.77;44.05;99658.81;5028801;28;20167;-73
2021/05/13 09:12:30;;;;;;;8.43;2.70;;;;;;;20.89;42.44;99648.97;5029519;28;20057;-72
2021/05/13 09:15:20;;;;;;;40.42;4.85;;;;;;;21.03;42.02;99638.22;5024414;28;20029;-72
2021/05/13 09:18:01;;;;;;;9.52;2.60;;;;;;;20.98;41.53;99627.81;5031472;28;20098;-72
2021/05/13 09:20:36;;;;;;;5.10;2.58;;;;;;;20.90;41.74;99648.06;5032130;28;20033;-73
2021/05/13 09:23:14;;;;;;;7.65;2.60;;;;;;;21.06;41.86;99630.28;5010939;28;20049;-76
2021/05/13 09:25:42;;;;;;;6.38;2.53;;;;;;;20.79;42.29;99601.91;5031371;28;20025;-72
2021/05/13 09:28:07;;;;;;;6.15;2.72;;;;;;;20.85;42.67;99629.81;5031223;28;20045;-74
2021/05/13 09:30:35;;;;;;;10.93;2.92;;;;;;;21.21;42.00;99629.97;5027126;28;20407;-76
2021/05/13 09:33:01;;;;;;;12.85;2.67;;;;;;;21.19;41.62;99600.25;5013633;28;20116;-72
2021/05/13 09:35:28;;;;;;;6.55;2.80;;;;;;;21.50;42.13;99620.63;5029046;28;20057;-74
2021/05/13 09:37:59;;;;;;;9.57;2.75;;;;;;;21.13;41.36;99556.66;5027187;28;20064;-74
2021/05/13 09:40:50;;;;;;;9.82;2.63;;;;;;;21.77;40.84;99616.56;5031026;28;20104;-77
2021/05/13 09:43:19;;;;;;;4.68;2.58;;;;;;;22.03;41.16;99617.72;5038359;28;20095;-76
2021/05/13 09:45:47;;;;;;;7.07;2.67;;;;;;;21.56;40.83;99602.13;5025639;28;20030;-71
2021/05/13 09:48:37;;;;;;;7.53;2.50;;;;;;;21.59;41.18;99614.34;5025701;28;20029;-73
2021/05/13 09:51:22;;;;;;;11.02;2.88;;;;;;;21.95;40.58;99612.63;5038079;28;20037;-73
2021/05/13 09:54:08;;;;;;;9.43;2.72;;;;;;;21.92;40.24;99628.47;5023694;28;20030;-71
2021/05/13 09:56:37;;;;;;;4.80;2.20;;;;;;;22.04;40.19;99622.03;5031851;28;20033;-73
2021/05/13 09:59:27;;;;;;;7.82;2.90;;;;;;;22.08;40.38;99614.94;4989219;28;20030;-72
2021/05/13 10:01:55;;;;;;;6.07;2.60;;;;;;;22.42;39.85;99615.00;4987039;28;20049;-73
2021/05/13 10:04:20;;;;;;;7.38;2.30;;;;;;;22.37;39.75;99611.66;4989556;28;20495;-73
2021/05/13 10:06:46;;;;;;;8.50;2.80;;;;;;;22.65;39.28;99621.44;4986075;28;20042;-75
2021/05/13 10:09:14;;;;;;;7.32;2.60;;;;;;;22.81;38.81;99606.09;4988900;28;20433;-72
2021/05/13 10:11:42;;;;;;;6.72;2.75;;;;;;;22.82;38.85;99613.09;4988395;28;21619;-74
2021/05/13 10:14:08;;;;;;;13.60;2.75;;;;;;;22.96;39.14;99614.50;4987547;28;20065;-73
2021/05/13 10:16:34;;;;;;;8.70;2.33;;;;;;;23.02;37.73;99572.22;4980076;28;20476;-73
2021/05/13 10:19:05;;;;;;;6.55;2.50;;;;;;;23.51;37.47;99610.25;4984284;28;20034;-71
2021/05/13 10:21:31;;;;;;;8.95;2.75;;;;;;;23.57;37.15;99604.81;4977877;28;20389;-72
2021/05/13 10:23:58;;;;;;;8.40;2.67;;;;;;;23.75;37.06;99598.13;4986882;28;20042;-72
2021/05/13 10:26:32;;;;;;;4.55;2.15;;;;;;;23.59;36.27;99615.31;4986961;28;20088;-71
2021/05/13 10:28:58;;;;;;;4.55;2.30;;;;;;;23.47;36.00;99570.91;4971180;28;20166;-77
2021/05/13 10:31:38;;;;;;;8.68;2.80;;;;;;;23.70;36.36;99605.31;5026503;28;20045;-77
2021/05/13 10:34:03;;;;;;;10.65;2.45;;;;;;;23.78;36.87;99588.41;5002478;28;20084;-76
2021/05/13 10:36:29;;;;;;;6.40;2.10;;;;;;;23.79;36.37;99571.66;5010249;28;20038;-74
2021/05/13 10:39:11;;;;;;;4.70;2.13;;;;;;;24.08;35.54;99583.06;5025391;28;20473;-75
2021/05/13 10:41:41;;;;;;;6.82;2.38;;;;;;;24.38;35.79;99582.03;5028784;28;20032;-73
2021/05/13 10:44:06;;;;;;;7.10;2.67;;;;;;;24.57;35.08;99543.59;5011418;28;20083;-74
2021/05/13 10:46:32;;;;;;;5.07;2.42;;;;;;;24.98;34.39;99570.28;5029146;28;20439;-75
2021/05/13 10:49:27;;;;;;;5.40;2.10;;;;;;;25.25;33.82;99570.19;5028698;28;20487;-71
2021/05/13 10:51:58;;;;;;;4.40;2.35;;;;;;;25.32;34.82;99567.22;4989915;28;20043;-71
2021/05/13 10:54:29;;;;;;;10.05;2.50;;;;;;;25.42;33.50;99569.53;4991035;28;20137;-73
2021/05/13 10:57:19;;;;;;;7.20;2.60;;;;;;;25.62;33.75;99563.47;4990039;28;20053;-70
2021/05/13 11:00:09;;;;;;;36.90;3.72;;;;;;;25.69;33.16;99557.00;4990769;28;20069;-73
2021/05/13 11:02:41;;;;;;;4.05;2.22;;;;;;;25.71;33.42;99551.66;4989611;28;20046;-71
2021/05/13 11:05:28;;;;;;;4.88;2.53;;;;;;;25.88;32.83;99549.19;4989715;28;20125;-73
2021/05/13 11:08:24;;;;;;;6.88;2.30;;;;;;;25.87;32.95;99534.25;4974366;28;20049;-73
2021/05/13 11:10:50;;;;;;;6.13;2.20;;;;;;;25.49;32.64;99544.59;4950706;28;20510;-74
2021/05/13 11:13:17;;;;;;;5.18;2.28;;;;;;;25.49;33.34;99549.88;4952823;28;20138;-71
2021/05/13 11:15:46;;;;;;;6.95;2.30;;;;;;;25.29;33.82;99542.72;4952762;28;20089;-71
2021/05/13 11:18:15;;;;;;;7.93;2.30;;;;;;;25.62;34.04;99540.56;4952749;28;20055;-74
2021/05/13 11:20:40;;;;;;;5.90;2.30;;;;;;;25.96;34.37;99539.16;4952503;28;20042;-73
2021/05/13 11:23:16;;;;;;;5.30;2.33;;;;;;;26.05;34.68;99506.16;4952727;28;20035;-73
2021/05/13 11:25:54;;;;;;;5.13;2.35;;;;;;;26.19;34.28;99517.97;4951592;28;20047;-73
2021/05/13 11:28:31;;;;;;;11.07;2.30;;;;;;;26.41;34.53;99525.84;4945129;28;20548;-72
2021/05/13 11:31:06;;;;;;;8.25;2.53;;;;;;;26.64;32.88;99541.56;4970261;28;20030;-72
2021/05/13 11:33:47;;;;;;;5.93;2.10;;;;;;;26.75;31.03;99537.63;4972168;28;20398;-72
2021/05/13 11:36:15;;;;;;;4.20;1.80;;;;;;;26.35;30.74;99534.06;4971335;28;20027;-73
2021/05/13 11:38:40;;;;;;;4.32;2.00;;;;;;;25.92;31.19;99536.69;4971709;28;20057;-71
2021/05/13 11:41:07;;;;;;;4.38;2.00;;;;;;;25.84;30.57;99502.66;4971975;28;20092;-72
2021/05/13 11:43:35;;;;;;;4.85;2.17;;;;;;;26.16;30.68;99497.81;4969989;28;20038;-72
2021/05/13 11:46:02;;;;;;;3.72;1.90;;;;;;;26.60;30.70;99534.69;4971864;28;20030;-74